Terminal Aerodrome Forecast
Issued by NWS

Home | Current Version | Previous Version | Text Only | Print | Product List | Glossary Off
Versions: 1 2 3 4 5 6 7 8 9 10 11 12 13 14 15

000
FTUS42 KMHX 261720
TAFPGV
TAF
KPGV 261720Z 2618/2718 17009G16KT P6SM BKN050
     FM262200 15008KT P6SM SCT250
     FM270900 VRB03KT 5SM BR SCT070
     FM271200 20008KT P6SM SCT035
      AMD LTD TO CLD VIS AND WIND=

USA.gov is the U.S. government's official web portal to all federal, state and local government web resources and services.